Relevés horaires Matro (Suisse)


Relevés horaires à Matro - Jeudi 02 Mai 2019
Heure UTC1 Température [°C] Vent [km/h] Hum. [%] Pres.4 [hPa] Visi. [Km] Nébu. [octa] Préc.5 [mm] Cond.
2m. Res. Ros. Dir.2 Vit. Moy. Raf.3
23:00 0.0 -3.1 -3.4 NO 9.3 -- 18.5 78 850(-0.5/3h) -- -- -- --
22:00 0.2 -3.8 -2.1 ONO 13.0 -- 16.7 84 850(-0.4/3h) -- -- -- --
21:00 -0.3 -4.4 -1.6 ONO 13.0 -- 24.1 91 850(-0.1/3h) -- -- -- --
20:00 -0.9 -3.6 -1.1 S 7.4 -- 18.5 99 850(-0.3/3h) -- -- -- --
19:00 -1.1 -6.1 -1.1 SE 16.7 -- 24.1 100 850(-0.5/3h) -- -- -- --
18:00 -0.7 -5.9 -1.3 S 18.5 -- 44.4 96 850(-0.3/3h) -- -- -- --
17:00 -0.6 -5.8 -0.6 S 18.5 -- 38.9 100 850(-0.7/3h) -- -- -- --
16:00 -0.6 -5.8 -0.6 S 18.5 -- 35.2 100 850(-1.2/3h) -- -- -- --
15:00 0.4 -5.3 -0.1 S 24.1 -- 44.4 96 850(-1.9/3h) -- -- -- --
14:00 2.8 0.7 1.1 S 7.4 -- 29.6 89 850(-1.5/3h) -- -- -- --
13:00 2.7 -1.6 0.2 S 18.5 -- 29.6 84 850(-1.2/3h) -- -- -- --
12:00 3.3 -1.1 0.2 S 20.4 -- 33.3 80 850(-0.9/3h) -- -- -- --
11:00 3.6 -1 -0.6 SSE 22.2 -- 33.3 74 850(-0.6/3h) -- -- -- --
10:00 3.4 -0.8 -0.9 S 18.5 -- 31.5 73 850(-0.2/3h) -- -- -- --
09:00 2.9 -1.1 -1.0 SSE 16.7 -- 27.8 75 850(0.0/3h) -- -- -- --
08:00 2.5 -0.6 -2.5 SSE 11.1 -- 18.5 69 850(0.2/3h) -- -- -- --
07:00 1.9 -1.7 -2.8 SSE 13.0 -- 20.4 71 850(0.2/3h) -- -- -- --
06:00 2.0 -1.9 -3.3 SE 14.8 -- 20.4 68 850(-0.2/3h) -- -- -- --
05:00 2.5 -1 -5.8 E 13.0 -- 14.8 54 850(-0.6/3h) -- -- -- --
04:00 2.3 -0.8 -4.1 E 11.1 -- 14.8 63 850(-0.8/3h) -- -- -- --
03:00 2.2 0 -4.6 E 7.4 -- 16.7 61 850(-0.8/3h) -- -- -- --
02:00 2.0 -1.2 -3.4 ESE 11.1 -- 16.7 67 850(-0.8/3h) -- -- -- --
01:00 2.3 -1.5 -2.6 SE 14.8 -- 16.7 70 850(-0.7/3h) -- -- -- --
00:00 2.2 -0.5 -4.7 SE 9.3 -- 27.8 60 850(-0.5/3h) -- -- -- --

1 Coordinated Universal Time. Actuellement il est 22:00 locale et 20:00 UTC.

2 Le vent souffle depuis la direction indiquée vers la direction oposée.

3 Les rafales max. sont disponible 40 min après l'heure du relevé.

4 Pour les stations d'altitude (plus de 600m) le géopotentiel du niveau le plus proche de la pression obligatoire est indiqué.

5 Les stations disposant d'un diffuseur peuvent indiquer "trace". Cela signifie que des précipitations ont touchés le sol mais que la quantité est inférieure à 0.1 mm.

Copyright

Les données affichées sur cette page sont la propriété exclusive de Météo Suisse.

Récapitulatif de la journée
Température [°C] Vent [km/h] Ensoleillement4 [h] Precipitations totale5 [mm] Pression [Hpa]
Min1 Max.2 Moy.3 Max. Min Max.
2.0 4.1 0 44.4 6 h 6 min 0 850.0 850.0

1 Température minimale relevée entre 18:00 UTC la veille et 18:00 UTC le jour donné.

2 Température maximale relevée entre 06:00 UTC le jour donné et 06:00 UTC le lendemain.

3 Vent moyen de la journée basé sur les relevés horaires.

4 Ensoleillement en heures relevé entre 06:00 UTC la veille et 06:00 UTC le jour donné.

5 Précipitations totales tombées entre 06:00 UTC la jour donné et 06:00 UTC le lendemain.

Graphiques horaires